Time;durP1;ratioP1;P1;durP2;ratioP2;P2;SDS_P1;SDS_P2;PMS_P1;PMS_P2;Temp;Humidity;BMP_temperature;BMP_pressure;BME280_temperature;BME280_humidity;BME280_pressure;Samples;Min_cycle;Max_cycle;Signal;HPM_P1;HPM_P2
2023/04/06 00:00:12;;;;;;;4.87;3.73;;;;;;;;;;6290312;28;20242;-61
2023/04/06 00:03:13;;;;;;;6.07;3.80;;;;;;;;;;6246743;28;20220;-61
2023/04/06 00:06:14;;;;;;;4.83;3.57;;;;;;;;;;6250915;28;20279;-62
2023/04/06 00:09:15;;;;;;;5.50;3.53;;;;;;;;;;6264770;28;20193;-62
2023/04/06 00:12:16;;;;;;;4.80;3.53;;;;;;;;;;6257306;28;20193;-62
2023/04/06 00:15:17;;;;;;;7.87;3.70;;;;;;;;;;6271105;28;20191;-61
2023/04/06 00:18:19;;;;;;;4.50;3.40;;;;;;;;;;6243917;28;20200;-62
2023/04/06 00:21:20;;;;;;;5.77;3.30;;;;;;;;;;6244662;28;20246;-62
2023/04/06 00:24:21;;;;;;;5.33;3.87;;;;;;;;;;6256852;28;20190;-62
2023/04/06 00:27:22;;;;;;;3.50;3.20;;;;;;;;;;6247349;28;20195;-61
2023/04/06 00:30:23;;;;;;;5.93;4.00;;;;;;;;;;6286713;28;20196;-61
2023/04/06 00:33:24;;;;;;;4.73;3.10;;;;;;;;;;6266028;28;20781;-62
2023/04/06 00:36:26;;;;;;;6.13;3.93;;;;;;;;;;6246395;28;20193;-61
2023/04/06 00:39:27;;;;;;;5.53;3.63;;;;;;;;;;6252024;28;20194;-61
2023/04/06 00:42:28;;;;;;;5.03;3.67;;;;;;;;;;6255459;28;20213;-61
2023/04/06 00:45:29;;;;;;;4.37;2.93;;;;;;;;;;6256510;28;20192;-61
2023/04/06 00:48:31;;;;;;;4.90;3.33;;;;;;;;;;6265711;28;20208;-61
2023/04/06 00:51:32;;;;;;;6.10;3.33;;;;;;;;;;6256323;28;20237;-62
2023/04/06 00:54:33;;;;;;;4.17;3.30;;;;;;;;;;6247989;28;20248;-62
2023/04/06 00:57:34;;;;;;;5.87;3.93;;;;;;;;;;6267711;28;20335;-61
2023/04/06 01:00:35;;;;;;;3.67;3.10;;;;;;;;;;6254845;28;20233;-61
2023/04/06 01:03:36;;;;;;;6.27;3.10;;;;;;;;;;6272769;28;20271;-61
2023/04/06 01:06:37;;;;;;;4.73;3.40;;;;;;;;;;6247782;28;20189;-61
2023/04/06 01:09:40;;;;;;;4.70;3.20;;;;;;;;;;6254622;28;20188;-61
2023/04/06 01:12:41;;;;;;;4.40;3.40;;;;;;;;;;6244944;28;20713;-61
2023/04/06 01:15:43;;;;;;;4.70;3.40;;;;;;;;;;6253352;28;20193;-61
2023/04/06 01:18:44;;;;;;;4.90;3.47;;;;;;;;;;6270023;28;20186;-62
2023/04/06 01:21:45;;;;;;;7.60;3.40;;;;;;;;;;6262821;28;20264;-62
2023/04/06 01:24:46;;;;;;;5.17;3.47;;;;;;;;;;6284936;28;20186;-63
2023/04/06 01:27:47;;;;;;;4.03;3.13;;;;;;;;;;6287703;28;20199;-62
2023/04/06 01:30:48;;;;;;;3.20;2.50;;;;;;;;;;6250889;28;20206;-62
2023/04/06 01:33:50;;;;;;;5.37;3.27;;;;;;;;;;6272468;28;20242;-62
2023/04/06 01:36:51;;;;;;;4.13;3.40;;;;;;;;;;6242198;28;20213;-62
2023/04/06 01:39:53;;;;;;;7.17;3.70;;;;;;;;;;6276587;28;20259;-61
2023/04/06 01:42:54;;;;;;;5.13;3.20;;;;;;;;;;6257791;28;20190;-61
2023/04/06 01:45:55;;;;;;;3.10;2.80;;;;;;;;;;6276301;28;20187;-61
2023/04/06 01:48:56;;;;;;;7.57;3.87;;;;;;;;;;6260447;28;20196;-62
2023/04/06 01:51:57;;;;;;;6.37;3.80;;;;;;;;;;6259738;28;20788;-61
2023/04/06 01:54:58;;;;;;;8.97;4.13;;;;;;;;;;6292960;28;20204;-62
2023/04/06 01:57:59;;;;;;;5.00;3.80;;;;;;;;;;6266976;28;20242;-62
2023/04/06 02:01:00;;;;;;;7.10;3.70;;;;;;;;;;6274191;28;20221;-61
2023/04/06 02:04:01;;;;;;;5.50;3.77;;;;;;;;;;6255300;28;20222;-62
2023/04/06 02:07:02;;;;;;;5.77;3.40;;;;;;;;;;6254731;28;20194;-62
2023/04/06 02:10:03;;;;;;;7.57;3.50;;;;;;;;;;6275671;28;20191;-61
2023/04/06 02:13:04;;;;;;;6.17;3.20;;;;;;;;;;6284280;28;20202;-61
2023/04/06 02:16:06;;;;;;;3.90;3.50;;;;;;;;;;6251528;28;20189;-61
2023/04/06 02:19:07;;;;;;;4.20;2.93;;;;;;;;;;6276320;28;20196;-61
2023/04/06 02:22:08;;;;;;;6.13;3.27;;;;;;;;;;6253701;28;20219;-61
2023/04/06 02:25:09;;;;;;;5.53;3.23;;;;;;;;;;6271992;28;20190;-61
2023/04/06 02:28:10;;;;;;;4.47;3.40;;;;;;;;;;6246367;28;20187;-61
2023/04/06 02:31:11;;;;;;;5.87;3.70;;;;;;;;;;6249466;28;20195;-61
2023/04/06 02:34:17;;;;;;;5.67;3.70;;;;;;;;;;6291324;28;20329;-62
2023/04/06 02:37:18;;;;;;;5.87;3.17;;;;;;;;;;6260573;28;20210;-62
2023/04/06 02:40:19;;;;;;;4.27;3.17;;;;;;;;;;6290946;28;20212;-62
2023/04/06 02:43:20;;;;;;;5.10;3.80;;;;;;;;;;6266844;28;20191;-61
2023/04/06 02:46:21;;;;;;;7.07;3.67;;;;;;;;;;6255828;28;20190;-62
2023/04/06 02:49:22;;;;;;;6.00;3.27;;;;;;;;;;6274918;28;20195;-63
2023/04/06 02:52:23;;;;;;;5.57;3.80;;;;;;;;;;6253094;28;20195;-61
2023/04/06 02:55:24;;;;;;;3.77;3.17;;;;;;;;;;6251220;28;20198;-61
2023/04/06 02:58:25;;;;;;;4.63;3.23;;;;;;;;;;6258383;28;20187;-61
2023/04/06 03:01:26;;;;;;;6.33;3.70;;;;;;;;;;6286118;28;20310;-61
2023/04/06 03:04:27;;;;;;;5.20;3.60;;;;;;;;;;6292411;28;20195;-61
2023/04/06 03:07:29;;;;;;;5.07;3.53;;;;;;;;;;6286358;28;20244;-61
2023/04/06 03:10:30;;;;;;;6.43;4.23;;;;;;;;;;6270623;28;20230;-61
2023/04/06 03:13:31;;;;;;;5.70;3.17;;;;;;;;;;6250249;28;20194;-62
2023/04/06 03:16:32;;;;;;;5.53;3.30;;;;;;;;;;6273409;28;20232;-62
2023/04/06 03:19:33;;;;;;;4.47;3.40;;;;;;;;;;6257955;28;20198;-62
2023/04/06 03:22:34;;;;;;;5.30;3.70;;;;;;;;;;6257579;28;20246;-62
2023/04/06 03:25:35;;;;;;;3.77;3.33;;;;;;;;;;6257202;28;20192;-62
2023/04/06 03:28:36;;;;;;;5.03;3.10;;;;;;;;;;6275623;28;20486;-62
2023/04/06 03:31:37;;;;;;;5.73;3.50;;;;;;;;;;6254233;28;20190;-62
2023/04/06 03:34:39;;;;;;;6.23;3.70;;;;;;;;;;6244737;28;20233;-62
2023/04/06 03:37:40;;;;;;;4.33;3.83;;;;;;;;;;6257503;28;20195;-62
2023/04/06 03:40:42;;;;;;;4.17;3.50;;;;;;;;;;6282918;28;20218;-62
2023/04/06 03:43:43;;;;;;;6.17;3.40;;;;;;;;;;6251301;28;20202;-62
2023/04/06 03:46:44;;;;;;;4.37;3.40;;;;;;;;;;6279792;28;20194;-62
2023/04/06 03:49:45;;;;;;;6.57;3.97;;;;;;;;;;6290470;28;20187;-62
2023/04/06 03:52:46;;;;;;;5.77;3.20;;;;;;;;;;6260732;28;20201;-63
2023/04/06 03:55:47;;;;;;;4.60;3.27;;;;;;;;;;6248117;28;20197;-62
2023/04/06 03:58:51;;;;;;;3.70;3.17;;;;;;;;;;6264426;28;20187;-62
2023/04/06 04:01:52;;;;;;;4.03;3.30;;;;;;;;;;6281708;28;20219;-61
2023/04/06 04:04:53;;;;;;;4.77;3.57;;;;;;;;;;6272623;28;20194;-62
2023/04/06 04:07:55;;;;;;;3.87;3.13;;;;;;;;;;6251725;28;20258;-62
2023/04/06 04:10:56;;;;;;;4.20;3.40;;;;;;;;;;6256902;28;20216;-61
2023/04/06 04:13:57;;;;;;;4.47;3.20;;;;;;;;;;6256489;28;20199;-61
2023/04/06 04:16:58;;;;;;;4.33;3.70;;;;;;;;;;6247866;28;20260;-61
2023/04/06 04:19:59;;;;;;;4.90;3.17;;;;;;;;;;6288137;28;20246;-62
2023/04/06 04:23:00;;;;;;;4.93;2.93;;;;;;;;;;6274133;28;20198;-62
2023/04/06 04:26:01;;;;;;;5.87;3.27;;;;;;;;;;6255684;28;20187;-62
2023/04/06 04:29:02;;;;;;;6.33;3.47;;;;;;;;;;6255446;28;20182;-62
2023/04/06 04:32:03;;;;;;;6.50;3.97;;;;;;;;;;6270019;28;20191;-62
2023/04/06 04:35:04;;;;;;;4.13;3.30;;;;;;;;;;6255767;28;20250;-62
2023/04/06 04:38:06;;;;;;;5.43;3.60;;;;;;;;;;6256270;28;20293;-63
2023/04/06 04:41:07;;;;;;;4.47;3.30;;;;;;;;;;6289859;28;20236;-62
2023/04/06 04:44:08;;;;;;;4.33;3.30;;;;;;;;;;6255129;28;20198;-62
2023/04/06 04:47:09;;;;;;;5.37;3.63;;;;;;;;;;6266174;28;20191;-62
2023/04/06 04:50:10;;;;;;;4.43;3.30;;;;;;;;;;6256772;28;20202;-62
2023/04/06 04:53:11;;;;;;;4.33;3.93;;;;;;;;;;6254856;28;20199;-62
2023/04/06 04:56:12;;;;;;;3.67;3.20;;;;;;;;;;6271635;28;20202;-62
2023/04/06 04:59:13;;;;;;;4.97;3.60;;;;;;;;;;6256245;28;20190;-61
2023/04/06 05:02:14;;;;;;;5.90;3.67;;;;;;;;;;6254161;28;20217;-62
2023/04/06 05:05:15;;;;;;;4.40;3.40;;;;;;;;;;6260559;28;20195;-61
2023/04/06 05:08:16;;;;;;;7.30;3.50;;;;;;;;;;6270278;28;20316;-61
2023/04/06 05:11:18;;;;;;;5.50;4.27;;;;;;;;;;6253089;28;20195;-61
2023/04/06 05:14:19;;;;;;;5.00;3.60;;;;;;;;;;6259581;28;20199;-61
2023/04/06 05:17:21;;;;;;;7.87;3.93;;;;;;;;;;6259625;28;20191;-61
2023/04/06 05:20:22;;;;;;;5.00;3.37;;;;;;;;;;6260133;28;20211;-61
2023/04/06 05:23:23;;;;;;;4.77;3.50;;;;;;;;;;6277272;28;20190;-62
2023/04/06 05:26:24;;;;;;;4.10;3.23;;;;;;;;;;6260920;28;20195;-61
2023/04/06 05:29:26;;;;;;;4.23;3.47;;;;;;;;;;6290415;28;20198;-61
2023/04/06 05:32:27;;;;;;;5.97;3.70;;;;;;;;;;6270931;28;20253;-60
2023/04/06 05:35:29;;;;;;;5.07;3.93;;;;;;;;;;6292118;28;20207;-60
2023/04/06 05:38:30;;;;;;;7.33;4.17;;;;;;;;;;6254261;28;20255;-60
2023/04/06 05:41:31;;;;;;;7.70;3.97;;;;;;;;;;6293137;28;20219;-60
2023/04/06 05:44:32;;;;;;;4.03;3.40;;;;;;;;;;6258491;28;20286;-60
2023/04/06 05:47:33;;;;;;;4.83;3.70;;;;;;;;;;6274641;28;20218;-59
2023/04/06 05:50:34;;;;;;;5.47;3.43;;;;;;;;;;6256503;28;20190;-61
2023/04/06 05:53:35;;;;;;;5.40;3.23;;;;;;;;;;6271835;28;20230;-60
2023/04/06 05:56:36;;;;;;;5.83;3.60;;;;;;;;;;6275241;28;20191;-60
2023/04/06 05:59:37;;;;;;;5.40;3.80;;;;;;;;;;6259507;28;20198;-60
2023/04/06 06:02:39;;;;;;;5.13;3.47;;;;;;;;;;6290808;28;20218;-60
2023/04/06 06:05:40;;;;;;;6.30;4.30;;;;;;;;;;6252220;28;20236;-60
2023/04/06 06:08:41;;;;;;;5.00;4.00;;;;;;;;;;6288778;28;20208;-60
2023/04/06 06:11:42;;;;;;;6.43;4.37;;;;;;;;;;6259491;28;20199;-60
2023/04/06 06:14:43;;;;;;;10.57;4.47;;;;;;;;;;6259534;28;20206;-59
2023/04/06 06:17:44;;;;;;;5.10;4.10;;;;;;;;;;6276828;28;20225;-60
2023/04/06 06:20:45;;;;;;;4.97;3.63;;;;;;;;;;6292639;28;20214;-57
2023/04/06 06:23:49;;;;;;;5.97;4.50;;;;;;;;;;6274240;28;20196;-56
2023/04/06 06:26:50;;;;;;;6.50;3.80;;;;;;;;;;6259866;28;20242;-59
2023/04/06 06:29:51;;;;;;;9.43;3.87;;;;;;;;;;6255481;28;20197;-59
2023/04/06 06:32:52;;;;;;;7.17;4.23;;;;;;;;;;6291804;28;20231;-57
2023/04/06 06:35:53;;;;;;;6.00;4.07;;;;;;;;;;6269132;28;20194;-59
2023/04/06 06:38:54;;;;;;;6.20;4.30;;;;;;;;;;6257105;28;20268;-58
2023/04/06 06:41:55;;;;;;;6.07;4.60;;;;;;;;;;6256084;28;20250;-58
2023/04/06 06:44:56;;;;;;;8.53;4.77;;;;;;;;;;6291373;28;20193;-58
2023/04/06 06:47:57;;;;;;;6.23;4.57;;;;;;;;;;6257118;28;20198;-58
2023/04/06 06:50:58;;;;;;;8.83;4.27;;;;;;;;;;6250907;28;20218;-59
2023/04/06 06:53:59;;;;;;;8.20;4.43;;;;;;;;;;6273571;28;20189;-58
2023/04/06 06:57:00;;;;;;;7.07;4.70;;;;;;;;;;6264669;28;20197;-58
2023/04/06 07:00:01;;;;;;;9.00;4.70;;;;;;;;;;6273296;28;20193;-58
2023/04/06 07:03:02;;;;;;;4.63;3.80;;;;;;;;;;6287695;28;20224;-57
2023/04/06 07:06:03;;;;;;;6.67;4.63;;;;;;;;;;6263310;28;20201;-59
2023/04/06 07:09:04;;;;;;;6.43;4.50;;;;;;;;;;6271154;28;20190;-59
2023/04/06 07:12:06;;;;;;;11.33;5.23;;;;;;;;;;6256827;28;20197;-59
2023/04/06 07:15:07;;;;;;;8.10;4.60;;;;;;;;;;6289712;28;20265;-58
2023/04/06 07:18:08;;;;;;;6.50;4.20;;;;;;;;;;6256238;28;20194;-59
2023/04/06 07:21:09;;;;;;;8.47;5.50;;;;;;;;;;6255377;28;20207;-58
2023/04/06 07:24:10;;;;;;;6.73;4.40;;;;;;;;;;6264727;28;20191;-58
2023/04/06 07:27:11;;;;;;;8.07;4.60;;;;;;;;;;6253026;28;20196;-58
2023/04/06 07:30:12;;;;;;;7.10;4.03;;;;;;;;;;6270145;28;20208;-59
2023/04/06 07:33:13;;;;;;;8.40;4.40;;;;;;;;;;6288713;28;20248;-56
2023/04/06 07:36:14;;;;;;;6.73;4.77;;;;;;;;;;6247167;28;20206;-56
2023/04/06 07:39:16;;;;;;;5.80;4.30;;;;;;;;;;6270631;28;20197;-56
2023/04/06 07:42:17;;;;;;;7.33;4.50;;;;;;;;;;6286558;28;20209;-58
2023/04/06 07:45:18;;;;;;;6.37;3.63;;;;;;;;;;6270963;28;20197;-57
2023/04/06 07:48:19;;;;;;;6.33;3.83;;;;;;;;;;6255070;28;20247;-59
2023/04/06 07:51:20;;;;;;;4.67;3.37;;;;;;;;;;6254877;28;20285;-56
2023/04/06 07:54:21;;;;;;;5.27;4.03;;;;;;;;;;6258563;28;20683;-58
2023/04/06 07:57:22;;;;;;;5.47;3.40;;;;;;;;;;6251782;28;20201;-58
2023/04/06 08:00:23;;;;;;;5.73;3.60;;;;;;;;;;6255067;28;20220;-57
2023/04/06 08:03:25;;;;;;;6.40;3.37;;;;;;;;;;6255387;28;20205;-58
2023/04/06 08:06:26;;;;;;;3.50;3.20;;;;;;;;;;6252690;28;20201;-58
2023/04/06 08:09:27;;;;;;;6.50;3.87;;;;;;;;;;6272167;28;20459;-59
2023/04/06 08:12:28;;;;;;;9.33;3.93;;;;;;;;;;6270493;28;20182;-59
2023/04/06 08:15:29;;;;;;;2.77;2.50;;;;;;;;;;6255364;28;20209;-57
2023/04/06 08:18:30;;;;;;;4.50;2.50;;;;;;;;;;6254794;28;20276;-57
2023/04/06 08:21:31;;;;;;;6.47;3.63;;;;;;;;;;6288876;28;20273;-58
2023/04/06 08:24:33;;;;;;;5.20;3.30;;;;;;;;;;6255148;28;20209;-59
2023/04/06 08:27:34;;;;;;;4.13;2.87;;;;;;;;;;6269298;28;20288;-59
2023/04/06 08:30:35;;;;;;;4.33;3.33;;;;;;;;;;6272402;28;20192;-58
2023/04/06 08:33:38;;;;;;;4.97;3.40;;;;;;;;;;6255584;28;20229;-57
2023/04/06 08:36:40;;;;;;;3.57;2.60;;;;;;;;;;6257178;28;20205;-59
2023/04/06 08:39:41;;;;;;;5.67;3.43;;;;;;;;;;6256165;28;20255;-60
2023/04/06 08:42:48;;;;;;;4.50;3.10;;;;;;;;;;6256766;28;20258;-59
2023/04/06 08:45:49;;;;;;;5.33;3.10;;;;;;;;;;6258348;28;20197;-59
2023/04/06 08:48:50;;;;;;;5.63;3.03;;;;;;;;;;6256191;28;20193;-59
2023/04/06 08:51:51;;;;;;;5.63;2.87;;;;;;;;;;6270776;28;20185;-59
2023/04/06 08:54:52;;;;;;;4.80;2.70;;;;;;;;;;6254688;28;20201;-59
2023/04/06 08:57:55;;;;;;;4.63;3.40;;;;;;;;;;6281624;28;20221;-58
2023/04/06 09:00:56;;;;;;;3.83;2.50;;;;;;;;;;6260375;28;20228;-58
2023/04/06 09:03:58;;;;;;;3.13;2.50;;;;;;;;;;6248185;28;20198;-58
2023/04/06 09:07:00;;;;;;;4.30;2.83;;;;;;;;;;6283643;28;20280;-59
2023/04/06 09:10:01;;;;;;;5.93;3.40;;;;;;;;;;6267777;28;20193;-58
2023/04/06 09:13:06;;;;;;;4.37;2.70;;;;;;;;;;6272226;28;20193;-58
2023/04/06 09:16:07;;;;;;;3.67;2.30;;;;;;;;;;6288899;28;20197;-58
2023/04/06 09:19:09;;;;;;;3.67;2.73;;;;;;;;;;6272480;28;20211;-59
2023/04/06 09:22:10;;;;;;;5.80;2.63;;;;;;;;;;6246688;28;20214;-58
2023/04/06 09:25:19;;;;;;;4.07;3.07;;;;;;;;;;6256479;28;20193;-58
2023/04/06 09:28:20;;;;;;;5.53;3.20;;;;;;;;;;6287989;28;20198;-58
2023/04/06 09:31:25;;;;;;;4.70;3.00;;;;;;;;;;6256045;28;20194;-57
2023/04/06 09:34:26;;;;;;;3.10;2.60;;;;;;;;;;6288648;28;20318;-58
2023/04/06 09:37:28;;;;;;;5.07;3.37;;;;;;;;;;6254353;28;20288;-58
2023/04/06 09:40:29;;;;;;;2.97;2.67;;;;;;;;;;6272325;28;20228;-57
2023/04/06 09:43:31;;;;;;;3.63;2.60;;;;;;;;;;6256523;28;20276;-57
2023/04/06 09:46:34;;;;;;;3.90;2.83;;;;;;;;;;6272309;28;20206;-59
2023/04/06 09:49:35;;;;;;;4.87;2.67;;;;;;;;;;6245445;28;20191;-59
2023/04/06 09:52:56;;;;;;;3.90;2.70;;;;;;;;;;6261944;28;20193;-58
2023/04/06 09:55:58;;;;;;;4.70;2.60;;;;;;;;;;6272397;28;20226;-59
2023/04/06 09:59:03;;;;;;;4.50;2.67;;;;;;;;;;6289704;28;20277;-59
2023/04/06 10:02:05;;;;;;;5.37;2.63;;;;;;;;;;6292294;28;20218;-59
2023/04/06 10:05:10;;;;;;;3.20;2.53;;;;;;;;;;6266067;28;20195;-58
2023/04/06 10:08:12;;;;;;;5.13;2.73;;;;;;;;;;6293071;28;20245;-58
2023/04/06 10:11:13;;;;;;;2.90;2.57;;;;;;;;;;6292210;28;20198;-57
2023/04/06 10:14:14;;;;;;;4.03;2.90;;;;;;;;;;6255278;28;20199;-57
2023/04/06 10:17:15;;;;;;;2.87;2.43;;;;;;;;;;6273190;28;20182;-55
2023/04/06 10:20:20;;;;;;;3.30;2.50;;;;;;;;;;6270067;28;20224;-58
2023/04/06 10:23:30;;;;;;;5.33;2.83;;;;;;;;;;6292959;28;20189;-58
2023/04/06 10:26:31;;;;;;;3.73;2.63;;;;;;;;;;6293461;28;20195;-59
2023/04/06 10:29:51;;;;;;;4.07;2.60;;;;;;;;;;6259107;28;20240;-59
2023/04/06 10:32:52;;;;;;;3.83;2.50;;;;;;;;;;6273643;28;20249;-59
2023/04/06 10:35:53;;;;;;;4.07;2.53;;;;;;;;;;6257763;28;20563;-60
2023/04/06 10:38:57;;;;;;;3.00;2.40;;;;;;;;;;6274689;28;20212;-58
2023/04/06 10:42:06;;;;;;;3.10;1.90;;;;;;;;;;6273346;28;20221;-59
2023/04/06 10:45:08;;;;;;;5.10;2.67;;;;;;;;;;6264726;28;20186;-58
2023/04/06 10:48:16;;;;;;;2.57;2.00;;;;;;;;;;6270061;28;20196;-60
2023/04/06 10:51:18;;;;;;;2.57;2.13;;;;;;;;;;6291009;28;20222;-60
2023/04/06 10:54:19;;;;;;;3.03;2.20;;;;;;;;;;6275358;28;20220;-59
2023/04/06 10:57:28;;;;;;;2.40;2.17;;;;;;;;;;6290690;28;20202;-58
2023/04/06 11:00:30;;;;;;;2.37;1.73;;;;;;;;;;6264218;28;20210;-59
2023/04/06 11:03:32;;;;;;;2.57;1.80;;;;;;;;;;6258560;28;20287;-58
2023/04/06 11:06:33;;;;;;;2.27;1.80;;;;;;;;;;6258169;28;20198;-58
2023/04/06 11:09:36;;;;;;;2.57;1.93;;;;;;;;;;6257963;28;20204;-58
2023/04/06 11:12:37;;;;;;;3.00;1.83;;;;;;;;;;6257523;28;20186;-59
2023/04/06 11:15:38;;;;;;;2.20;1.77;;;;;;;;;;6259157;28;20189;-58
2023/04/06 11:18:46;;;;;;;3.93;2.07;;;;;;;;;;6271501;28;20186;-59
2023/04/06 11:21:48;;;;;;;1.63;1.50;;;;;;;;;;6282786;28;20218;-59
2023/04/06 11:24:49;;;;;;;1.73;1.57;;;;;;;;;;6257552;28;20189;-58
2023/04/06 11:27:51;;;;;;;2.30;1.70;;;;;;;;;;6257457;28;20201;-58
2023/04/06 11:30:52;;;;;;;3.47;2.53;;;;;;;;;;6257800;28;20198;-58
2023/04/06 11:33:57;;;;;;;2.27;1.77;;;;;;;;;;6289438;28;20241;-58
2023/04/06 11:36:59;;;;;;;2.13;1.93;;;;;;;;;;6257868;28;20204;-57
2023/04/06 11:40:00;;;;;;;3.00;1.80;;;;;;;;;;6244717;28;20247;-58
2023/04/06 11:43:01;;;;;;;2.43;1.50;;;;;;;;;;6257222;28;20205;-58
2023/04/06 11:46:03;;;;;;;2.00;1.40;;;;;;;;;;6257873;28;20252;-58
2023/04/06 11:49:04;;;;;;;2.40;1.73;;;;;;;;;;6257977;28;20186;-58
2023/04/06 11:52:15;;;;;;;3.67;1.90;;;;;;;;;;6257738;28;20194;-57
2023/04/06 11:55:17;;;;;;;2.93;1.93;;;;;;;;;;6271938;28;20201;-57
2023/04/06 11:58:18;;;;;;;2.97;1.67;;;;;;;;;;6274943;28;20261;-59
2023/04/06 12:01:19;;;;;;;2.23;1.50;;;;;;;;;;6257431;28;20244;-58
2023/04/06 12:04:20;;;;;;;3.23;1.87;;;;;;;;;;6290349;28;20389;-58
2023/04/06 12:07:21;;;;;;;1.87;1.70;;;;;;;;;;6257677;28;20190;-59
2023/04/06 12:10:22;;;;;;;2.00;1.57;;;10.80;28.60;;;;;;6288533;28;20197;-58
2023/04/06 12:13:23;;;;;;;2.77;1.50;;;11.70;32.70;;;;;;6240116;28;20520;-57
2023/04/06 12:16:24;;;;;;;2.43;1.50;;;12.00;34.40;;;;;;6253885;28;20197;-58
2023/04/06 12:19:25;;;;;;;1.87;1.63;;;12.40;26.70;;;;;;6255082;28;20195;-56
2023/04/06 12:22:26;;;;;;;2.10;1.50;;;12.80;25.80;;;;;;6303574;28;20222;-58
2023/04/06 12:25:27;;;;;;;2.33;1.40;;;13.00;24.40;;;;;;6256962;28;20186;-60
2023/04/06 12:28:28;;;;;;;2.50;1.60;;;;;;;;;;6251740;28;20190;-58
2023/04/06 12:31:29;;;;;;;2.00;1.67;;;;;;;;;;6288336;28;20186;-59
2023/04/06 12:34:30;;;;;;;1.83;1.30;;;;;;;;;;6271894;28;20241;-59
2023/04/06 12:37:30;;;;;;;2.83;1.70;;;13.70;23.70;;;;;;6254966;28;20200;-56
2023/04/06 12:40:37;;;;;;;1.53;1.43;;;19.50;19.70;;;;;;6272069;28;20232;-58
2023/04/06 12:43:39;;;;;;;1.30;1.20;;;21.70;19.20;;;;;;6285812;28;20197;-57
2023/04/06 12:46:40;;;;;;;2.47;1.60;;;23.90;18.30;;;;;;6254176;28;20185;-58
2023/04/06 12:49:41;;;;;;;2.37;1.63;;;24.80;17.50;;;;;;6256803;28;20213;-58
2023/04/06 12:52:41;;;;;;;2.70;1.63;;;25.60;16.70;;;;;;6273853;28;20185;-58
2023/04/06 12:55:42;;;;;;;1.97;1.50;;;;;;;;;;6239056;28;20221;-59
2023/04/06 12:58:44;;;;;;;2.87;1.50;;;;;;;;;;6262079;28;20281;-58
2023/04/06 13:01:45;;;;;;;1.60;1.37;;;25.30;17.20;;;;;;6261100;28;20222;-59
2023/04/06 13:04:46;;;;;;;1.60;1.50;;;27.40;15.40;;;;;;6272285;28;20242;-57
2023/04/06 13:07:46;;;;;;;2.00;1.50;;;25.10;15.80;;;;;;6249057;28;20200;-58
2023/04/06 13:10:48;;;;;;;2.20;1.30;;;25.10;16.20;;;;;;6239691;28;20243;-58
2023/04/06 13:13:49;;;;;;;1.70;1.13;;;25.20;17.20;;;;;;6264617;28;20182;-58
2023/04/06 13:16:51;;;;;;;2.07;1.30;;;;;;;;;;6244822;28;20287;-58
2023/04/06 13:19:52;;;;;;;1.60;1.33;;;;;;;;;;6255473;28;20197;-56
2023/04/06 13:22:52;;;;;;;1.50;1.40;;;23.30;16.60;;;;;;6255982;28;20217;-57
2023/04/06 13:26:00;;;;;;;2.57;1.80;;;;;;;;;;6231066;28;20236;-56
2023/04/06 13:29:02;;;;;;;1.57;1.47;;;25.60;16.20;;;;;;6265298;28;20190;-57
2023/04/06 13:32:03;;;;;;;1.10;1.07;;;23.90;17.00;;;;;;6246451;28;20190;-57
2023/04/06 13:35:04;;;;;;;3.03;1.60;;;23.50;18.50;;;;;;6261561;28;20247;-57
2023/04/06 13:38:05;;;;;;;3.07;1.60;;;23.10;17.70;;;;;;6238487;28;20221;-57
2023/04/06 13:41:06;;;;;;;1.50;1.33;;;21.90;17.50;;;;;;6254139;28;20213;-57
2023/04/06 13:44:07;;;;;;;1.40;1.30;;;;;;;;;;6271495;28;20647;-57
2023/04/06 13:47:07;;;;;;;3.17;1.47;;;20.90;18.00;;;;;;6286396;28;20220;-57
2023/04/06 13:50:08;;;;;;;1.50;1.30;;;20.30;18.20;;;;;;6242714;28;20238;-57
2023/04/06 13:53:09;;;;;;;1.70;1.60;;;21.30;18.00;;;;;;6269962;28;20191;-57
2023/04/06 13:56:10;;;;;;;2.00;1.43;;;23.20;17.20;;;;;;6269604;28;20194;-57
2023/04/06 13:59:10;;;;;;;2.17;1.40;;;23.40;17.10;;;;;;6246142;28;20667;-58
2023/04/06 14:02:11;;;;;;;1.30;1.20;;;24.20;16.50;;;;;;6239349;28;20221;-57
2023/04/06 14:05:12;;;;;;;1.30;1.17;;;24.50;16.60;;;;;;6290640;28;20239;-57
2023/04/06 14:08:13;;;;;;;1.53;1.40;;;23.90;16.40;;;;;;6265552;28;20205;-57
2023/04/06 14:11:14;;;;;;;1.40;1.30;;;22.60;16.90;;;;;;6255733;28;20202;-56
2023/04/06 14:14:16;;;;;;;1.47;1.30;;;23.40;16.80;;;;;;6275110;28;20201;-57
2023/04/06 14:17:16;;;;;;;1.47;1.37;;;23.90;16.90;;;;;;6240606;28;20197;-57
2023/04/06 14:20:17;;;;;;;1.63;1.00;;;24.40;16.80;;;;;;6251670;28;20210;-58
2023/04/06 14:23:18;;;;;;;3.50;1.17;;;24.00;16.50;;;;;;6257431;28;20195;-56
2023/04/06 14:26:19;;;;;;;1.53;1.23;;;;;;;;;;6240221;28;20220;-57
2023/04/06 14:29:20;;;;;;;1.80;1.40;;;23.60;16.50;;;;;;6251761;28;20194;-58
2023/04/06 14:32:21;;;;;;;1.63;1.10;;;22.50;17.30;;;;;;6273627;28;20228;-57
2023/04/06 14:35:22;;;;;;;1.80;1.37;;;;;;;;;;6245076;28;20205;-57
2023/04/06 14:38:23;;;;;;;2.83;1.20;;;;;;;;;;6258853;28;20292;-57
2023/04/06 14:41:24;;;;;;;2.00;1.13;;;;;;;;;;6258226;28;20217;-58
2023/04/06 14:44:26;;;;;;;2.43;1.30;;;;;;;;;;6263395;28;20178;-57
2023/04/06 14:47:27;;;;;;;1.63;1.40;;;;;;;;;;6273276;28;20196;-57
2023/04/06 14:50:28;;;;;;;1.30;1.20;;;;;;;;;;6258788;28;20195;-57
2023/04/06 14:53:29;;;;;;;2.90;1.63;;;;;;;;;;6254233;28;20193;-57
2023/04/06 14:56:31;;;;;;;2.10;1.63;;;;;;;;;;6259430;28;20216;-58
2023/04/06 14:59:32;;;;;;;1.77;1.47;;;;;;;;;;6281949;28;20288;-58
2023/04/06 15:02:33;;;;;;;1.23;1.00;;;;;;;;;;6288513;28;20213;-57
2023/04/06 15:05:35;;;;;;;2.43;1.30;;;;;;;;;;6289708;28;20211;-56
2023/04/06 15:08:36;;;;;;;2.40;1.30;;;;;;;;;;6258443;28;20280;-57
2023/04/06 15:11:37;;;;;;;2.13;1.33;;;;;;;;;;6257867;28;20271;-57
2023/04/06 15:14:38;;;;;;;1.30;1.20;;;;;;;;;;6257950;28;20232;-57
2023/04/06 15:17:39;;;;;;;1.40;1.30;;;;;;;;;;6259913;28;20205;-57
2023/04/06 15:20:41;;;;;;;2.27;1.53;;;;;;;;;;6248095;28;20221;-57
2023/04/06 15:23:42;;;;;;;1.97;1.17;;;;;;;;;;6290372;28;20194;-57
2023/04/06 15:26:45;;;;;;;1.37;1.20;;;;;;;;;;6245110;28;20327;-57
2023/04/06 15:29:46;;;;;;;3.10;1.47;;;;;;;;;;6258835;28;20262;-57
2023/04/06 15:33:00;;;;;;;1.40;1.27;;;;;;;;;;6247929;28;20328;-57
2023/04/06 15:36:03;;;;;;;2.60;1.60;;;;;;;;;;6291675;28;20202;-57
2023/04/06 15:39:08;;;;;;;3.07;1.60;;;22.50;17.00;;;;;;6290999;28;20220;-57
2023/04/06 15:42:09;;;;;;;1.67;1.57;;;25.00;16.80;;;;;;6289886;28;20221;-58
2023/04/06 15:45:10;;;;;;;1.60;1.33;;;23.70;16.50;;;;;;6273593;28;20190;-58
2023/04/06 15:48:11;;;;;;;2.70;1.80;;;22.30;17.20;;;;;;6259635;28;20249;-59
2023/04/06 15:51:12;;;;;;;1.47;1.20;;;;;;;;;;6273958;28;20205;-59
2023/04/06 15:54:13;;;;;;;1.77;1.20;;;;;;;;;;6272968;28;20276;-58
2023/04/06 15:57:14;;;;;;;2.57;1.60;;;;;;;;;;6270297;28;20201;-58
2023/04/06 16:00:16;;;;;;;1.93;1.27;;;;;;;;;;6273591;28;20232;-59
2023/04/06 16:03:17;;;;;;;2.60;1.57;;;;;;;;;;6256095;28;20196;-60
2023/04/06 16:06:18;;;;;;;3.00;1.63;;;;;;;;;;6288064;28;20182;-58
2023/04/06 16:09:18;;;;;;;1.70;1.33;;;21.40;17.60;;;;;;6269477;28;20248;-60
2023/04/06 16:12:20;;;;;;;1.57;1.47;;;;;;;;;;6246827;28;20288;-58
2023/04/06 16:15:21;;;;;;;2.23;1.37;;;;;;;;;;6286183;28;20217;-58
2023/04/06 16:18:22;;;;;;;2.67;1.27;;;;;;;;;;6251402;28;20233;-60
2023/04/06 16:21:23;;;;;;;2.43;1.70;;;;;;;;;;6287528;28;20221;-58
2023/04/06 16:24:24;;;;;;;2.20;1.43;;;;;;;;;;6266368;28;20194;-58
2023/04/06 16:27:25;;;;;;;2.40;1.57;;;;;;;;;;6255466;28;20336;-59
2023/04/06 16:30:29;;;;;;;1.97;1.50;;;;;;;;;;6287234;28;20202;-58
2023/04/06 16:33:30;;;;;;;2.27;1.60;;;;;;;;;;6246568;28;20276;-59
2023/04/06 16:36:32;;;;;;;1.60;1.50;;;;;;;;;;6264711;28;20205;-58
2023/04/06 16:39:33;;;;;;;2.30;1.30;;;;;;;;;;6281953;28;20723;-58
2023/04/06 16:42:34;;;;;;;3.10;1.40;;;;;;;;;;6235629;28;20214;-58
2023/04/06 16:45:35;;;;;;;1.67;1.57;;;;;;;;;;6254672;28;20198;-60
2023/04/06 16:48:36;;;;;;;2.00;1.57;;;;;;;;;;6252281;28;20194;-57
2023/04/06 16:51:40;;;;;;;1.87;1.40;;;;;;;;;;6249789;28;20196;-58
2023/04/06 16:54:41;;;;;;;3.77;1.40;;;;;;;;;;6272923;28;20200;-58
2023/04/06 16:57:41;;;;;;;1.77;1.43;;;15.30;21.10;;;;;;6276636;28;20284;-58
2023/04/06 17:00:42;;;;;;;1.40;1.30;;;12.30;23.80;;;;;;6242374;28;20222;-58
2023/04/06 17:03:44;;;;;;;2.00;1.33;;;12.10;23.90;;;;;;6272297;28;20197;-59
2023/04/06 17:06:45;;;;;;;1.90;1.50;;;12.10;24.40;;;;;;6260668;28;20194;-59
2023/04/06 17:09:47;;;;;;;2.03;1.60;;;;;;;;;;6248898;28;20197;-58
2023/04/06 17:12:49;;;;;;;2.23;1.80;;;;;;;;;;6255849;28;20190;-59
2023/04/06 17:15:50;;;;;;;3.10;1.90;;;;;;;;;;6272673;28;20197;-59
2023/04/06 17:18:51;;;;;;;2.03;1.80;;;;;;;;;;6255827;28;20201;-58
2023/04/06 17:21:52;;;;;;;3.10;1.93;;;;;;;;;;6279863;28;20236;-59
2023/04/06 17:24:53;;;;;;;2.77;1.87;;;;;;;;;;6287944;28;20204;-59
2023/04/06 17:27:54;;;;;;;1.67;1.40;;;;;;;;;;6288394;28;20189;-58
2023/04/06 17:30:55;;;;;;;2.73;2.10;;;;;;;;;;6248210;28;20275;-59
2023/04/06 17:33:58;;;;;;;3.57;1.63;;;;;;;;;;6271619;28;20331;-59
2023/04/06 17:36:59;;;;;;;2.00;1.80;;;;;;;;;;6271970;28;20190;-57
2023/04/06 17:40:00;;;;;;;2.00;1.80;;;;;;;;;;6271748;28;20285;-58
2023/04/06 17:43:01;;;;;;;2.63;2.17;;;;;;;;;;6257263;28;20210;-65
2023/04/06 17:46:02;;;;;;;2.23;1.80;;;;;;;;;;6255816;28;20198;-65